createdAt,value
2023-01-28T00:02:27.038Z,102578.00
2023-01-28T00:07:29.795Z,102585.94
2023-01-28T00:12:32.326Z,102568.53
2023-01-28T00:17:36.781Z,102577.13
2023-01-28T00:22:39.385Z,102582.28
2023-01-28T00:27:41.984Z,102589.41
2023-01-28T00:32:45.899Z,102578.00
2023-01-28T00:37:48.611Z,102582.47
2023-01-28T00:42:52.064Z,102585.06
2023-01-28T00:47:57.887Z,102574.56
2023-01-28T00:53:00.507Z,102576.41
2023-01-28T00:58:03.434Z,102572.22
2023-01-28T01:03:07.567Z,102583.59
2023-01-28T01:08:10.324Z,102599.31
2023-01-28T01:13:12.919Z,102549.09
2023-01-28T01:18:17.381Z,102454.44
2023-01-28T01:23:19.926Z,102588.88
2023-01-28T01:28:23.504Z,102588.88
2023-01-28T01:33:29.693Z,102592.28
2023-01-28T01:38:32.511Z,102600.28
2023-01-28T01:43:50.189Z,102611.72
2023-01-28T01:48:56.271Z,102603.97
2023-01-28T01:54:00.405Z,102610.06
2023-01-28T01:59:04.635Z,102617.88
2023-01-28T02:04:14.647Z,102617.97
2023-01-28T02:09:25.927Z,102621.38
2023-01-28T02:14:32.153Z,102624.22
2023-01-28T02:19:41.187Z,102623.34
2023-01-28T02:25:13.584Z,102622.69
2023-01-28T02:30:22.496Z,102627.81
2023-01-28T02:35:32.636Z,102617.25
2023-01-28T02:40:58.711Z,102617.31
2023-01-28T02:46:30.799Z,102592.19
2023-01-28T02:51:44.647Z,102621.56
2023-01-28T02:56:53.939Z,102623.31
2023-01-28T03:02:03.107Z,102622.41
2023-01-28T03:07:10.938Z,102615.56
2023-01-28T03:12:34.939Z,102612.78
2023-01-28T03:18:02.856Z,102612.78
2023-01-28T03:23:28.979Z,102618.91
2023-01-28T03:28:51.749Z,102604.09
2023-01-28T03:34:15.603Z,102612.06
2023-01-28T03:39:20.551Z,102616.56
2023-01-28T03:44:41.539Z,102620.72
2023-01-28T03:49:49.022Z,102626.97
2023-01-28T03:54:54.759Z,102632.09
2023-01-28T03:59:57.722Z,102629.50
2023-01-28T04:05:06.817Z,102629.56
2023-01-28T04:10:11.912Z,102629.59
2023-01-28T04:15:46.333Z,102638.28
2023-01-28T04:21:12.288Z,102643.56
2023-01-28T04:26:35.035Z,102632.28
2023-01-28T04:31:57.828Z,102639.31
2023-01-28T04:37:45.528Z,102647.13
2023-01-28T04:43:21.465Z,102644.47
2023-01-28T04:48:50.386Z,102646.44
2023-01-28T04:53:54.855Z,102641.09
2023-01-28T04:59:08.149Z,102651.59
2023-01-28T05:04:10.957Z,102642.84
2023-01-28T05:09:16.349Z,102636.69
2023-01-28T05:14:19.541Z,102632.41
2023-01-28T05:19:28.203Z,102627.09
2023-01-28T05:24:33.494Z,102512.72
2023-01-28T05:29:36.191Z,102643.69
2023-01-28T05:34:38.868Z,102650.03
2023-01-28T05:39:48.555Z,102643.34
2023-01-28T05:44:51.321Z,102658.88
2023-01-28T05:50:16.328Z,102666.81
2023-01-28T05:55:22.756Z,102655.72
2023-01-28T06:00:25.814Z,102655.66
2023-01-28T06:05:28.669Z,102535.84
2023-01-28T06:10:32.659Z,102663.28
2023-01-28T06:15:35.392Z,102655.41
2023-01-28T06:20:58.212Z,102664.97
2023-01-28T06:26:03.459Z,102671.06
2023-01-28T06:31:06.294Z,102661.75
2023-01-28T06:36:09.915Z,102661.78
2023-01-28T06:41:13.816Z,102667.06
2023-01-28T06:46:16.546Z,102668.88
2023-01-28T06:51:19.613Z,102671.28
2023-01-28T06:56:23.558Z,102683.34
2023-01-28T07:01:26.137Z,102676.38
2023-01-28T07:06:28.746Z,102692.94
2023-01-28T07:11:32.647Z,102678.06
2023-01-28T07:16:35.292Z,102626.13
2023-01-28T07:21:37.857Z,102672.88
2023-01-28T07:26:41.808Z,102660.66
2023-01-28T07:31:44.489Z,102662.44
2023-01-28T07:36:47.070Z,102678.06
2023-01-28T07:41:50.935Z,102676.34
2023-01-28T07:47:08.587Z,102686.00
2023-01-28T07:52:11.390Z,102703.47
2023-01-28T07:57:15.351Z,102708.03
2023-01-28T08:02:18.383Z,102728.19
2023-01-28T08:07:20.914Z,102716.00
2023-01-28T08:12:25.230Z,102728.34
2023-01-28T08:17:28.963Z,102720.38
2023-01-28T08:22:31.540Z,102727.19
2023-01-28T08:27:35.444Z,102738.47
2023-01-28T08:32:38.317Z,102748.81
2023-01-28T08:37:41.270Z,102767.16
2023-01-28T08:42:49.334Z,102762.75
2023-01-28T08:47:53.623Z,102782.16
2023-01-28T08:52:57.836Z,102795.34
2023-01-28T08:58:04.088Z,102786.72
2023-01-28T09:03:07.236Z,102787.66
2023-01-28T09:08:12.361Z,102803.31
2023-01-28T09:13:16.961Z,102798.16
2023-01-28T09:18:20.424Z,102819.19
2023-01-28T09:23:23.018Z,102813.94
2023-01-28T09:28:27.022Z,102813.88
2023-01-28T09:33:29.696Z,102821.78
2023-01-28T09:38:34.896Z,102820.81
2023-01-28T09:44:01.558Z,102836.59
2023-01-28T09:49:13.097Z,102813.94
2023-01-28T09:54:27.078Z,102837.53
2023-01-28T09:59:34.119Z,102830.53
2023-01-28T10:04:55.049Z,102824.44
2023-01-28T10:10:04.400Z,102823.38
2023-01-28T10:15:28.772Z,102810.19
2023-01-28T10:20:34.426Z,102821.56
2023-01-28T10:25:37.028Z,102815.44
2023-01-28T10:30:45.279Z,102822.28
2023-01-28T10:35:48.341Z,102819.66
2023-01-28T10:40:51.801Z,102831.72
2023-01-28T10:46:02.151Z,102809.38
2023-01-28T10:51:06.390Z,102843.44
2023-01-28T10:56:11.568Z,102838.22
2023-01-28T11:01:15.499Z,102844.34
2023-01-28T11:06:25.688Z,102847.88
2023-01-28T11:11:29.722Z,102850.31
2023-01-28T11:16:33.724Z,102847.63
2023-01-28T11:21:36.631Z,102852.03
2023-01-28T11:26:44.391Z,102846.81
2023-01-28T11:31:48.428Z,102842.38
2023-01-28T11:36:53.028Z,102791.84
2023-01-28T11:41:56.147Z,102811.06
2023-01-28T11:47:16.939Z,102831.91
2023-01-28T11:52:28.519Z,102826.69
2023-01-28T11:57:46.944Z,102801.28
2023-01-28T12:02:55.685Z,102797.75
2023-01-28T12:08:10.277Z,102799.19
2023-01-28T12:13:26.491Z,102781.69
2023-01-28T12:18:44.740Z,102788.69
2023-01-28T12:24:02.834Z,102770.47
2023-01-28T12:29:19.407Z,102758.97
2023-01-28T12:34:40.260Z,102716.22
2023-01-28T12:39:58.566Z,102677.84
2023-01-28T12:45:15.115Z,102684.72
2023-01-28T12:50:24.605Z,102657.06
2023-01-28T12:55:38.540Z,102728.56
2023-01-28T13:00:47.165Z,102740.63
2023-01-28T13:05:53.400Z,102732.56
2023-01-28T13:10:58.372Z,102730.69
2023-01-28T13:16:03.643Z,102724.84
2023-01-28T13:21:12.923Z,102725.88
2023-01-28T13:26:39.129Z,102744.88
2023-01-28T13:31:44.699Z,102711.88
2023-01-28T13:36:49.650Z,102740.53
2023-01-28T13:41:54.781Z,102739.63
2023-01-28T13:46:59.928Z,102729.31
2023-01-28T13:52:09.787Z,102744.16
2023-01-28T13:57:37.713Z,102751.19
2023-01-28T14:03:18.629Z,102752.19
2023-01-28T14:08:40.271Z,102736.47
2023-01-28T14:14:23.536Z,102723.41
2023-01-28T14:19:30.669Z,102690.41
2023-01-28T14:24:37.664Z,102692.94
2023-01-28T14:29:51.132Z,102667.84
2023-01-28T14:34:54.109Z,102687.78
2023-01-28T14:40:01.068Z,102692.13
2023-01-28T14:45:19.735Z,102681.50
2023-01-28T14:50:35.745Z,102679.16
2023-01-28T14:55:49.442Z,102687.97
2023-01-28T15:00:56.713Z,102559.38
2023-01-28T15:06:04.397Z,102707.31
2023-01-28T15:11:10.223Z,102706.50
2023-01-28T15:16:19.004Z,102714.56
2023-01-28T15:21:22.334Z,102731.78
2023-01-28T15:26:28.968Z,102750.13
2023-01-28T15:31:33.622Z,102715.28
2023-01-28T15:36:36.687Z,102725.66
2023-01-28T15:41:46.487Z,102742.38
2023-01-28T15:46:49.896Z,102725.97
2023-01-28T15:51:52.503Z,102759.88
2023-01-28T15:56:56.509Z,102768.63
2023-01-28T16:02:18.425Z,102758.16
2023-01-28T16:07:21.100Z,102789.59
2023-01-28T16:12:26.764Z,102780.00
2023-01-28T16:17:32.263Z,102791.38
2023-01-28T16:22:37.157Z,102784.31
2023-01-28T16:27:41.128Z,102783.47
2023-01-28T16:32:44.884Z,102784.44
2023-01-28T16:44:37.875Z,102795.78
2023-01-28T16:49:40.820Z,102792.25
2023-01-28T16:54:45.443Z,102782.66
2023-01-28T16:59:49.346Z,102785.31
2023-01-28T17:04:52.060Z,102780.13
2023-01-28T17:09:54.666Z,102752.25
2023-01-28T17:14:58.625Z,102779.19
2023-01-28T17:20:01.208Z,102760.06
2023-01-28T17:25:04.844Z,102764.44
2023-01-28T17:30:10.501Z,102767.94
2023-01-28T17:35:14.726Z,102766.19
2023-01-28T17:40:17.705Z,102783.63
2023-01-28T17:45:21.995Z,102788.84
2023-01-28T17:50:24.608Z,102802.81
2023-01-28T17:55:27.512Z,102813.28
2023-01-28T18:00:32.054Z,102820.25
2023-01-28T18:05:35.277Z,102822.84
2023-01-28T18:10:37.873Z,102814.13
2023-01-28T18:15:42.142Z,102812.38
2023-01-28T18:20:44.700Z,102818.50
2023-01-28T18:25:47.276Z,102822.84
2023-01-28T18:30:51.189Z,102828.94
2023-01-28T18:35:53.840Z,102834.16
2023-01-28T18:40:57.145Z,102844.59
2023-01-28T18:46:01.124Z,102838.47
2023-01-28T18:51:03.764Z,102848.09
2023-01-28T18:56:08.014Z,102845.47
2023-01-28T19:01:12.633Z,102829.78
2023-01-28T19:06:15.636Z,102839.34
2023-01-28T19:11:18.188Z,102847.22
2023-01-28T19:16:23.017Z,102843.69
2023-01-28T19:21:26.662Z,102845.47
2023-01-28T19:26:31.072Z,102844.59
2023-01-28T19:31:35.024Z,102845.44
2023-01-28T19:36:37.997Z,102847.19
2023-01-28T19:41:40.692Z,102843.56
2023-01-28T19:46:44.594Z,102852.38
2023-01-28T19:51:47.516Z,102862.72
2023-01-28T19:56:50.312Z,102884.53
2023-01-28T20:01:54.254Z,102877.63
2023-01-28T20:06:57.256Z,102868.84
2023-01-28T20:11:59.882Z,102866.28
2023-01-28T20:17:03.784Z,102868.09
2023-01-28T20:22:08.962Z,102845.44
2023-01-28T20:27:15.017Z,102855.84
2023-01-28T20:32:20.610Z,102845.28
2023-01-28T20:37:23.415Z,102847.09
2023-01-28T20:42:26.090Z,102841.03
2023-01-28T20:47:30.203Z,102826.22
2023-01-28T20:52:32.754Z,102822.75
2023-01-28T20:57:36.633Z,102823.63
2023-01-28T21:02:43.237Z,102823.63
2023-01-28T21:07:45.826Z,102812.25
2023-01-28T21:12:48.383Z,102811.44
2023-01-28T21:17:52.330Z,102799.28
2023-01-28T21:22:55.378Z,102798.34
2023-01-28T21:27:57.941Z,102807.03
2023-01-28T21:33:02.091Z,102800.06
2023-01-28T21:38:05.004Z,102798.34
2023-01-28T21:43:08.124Z,102799.22
2023-01-28T21:48:12.071Z,102811.38
2023-01-28T21:53:14.605Z,102800.06
2023-01-28T21:58:34.854Z,102819.84
2023-01-28T22:03:39.061Z,102818.22
2023-01-28T22:08:41.840Z,102815.50
2023-01-28T22:13:44.441Z,102813.81
2023-01-28T22:18:50.121Z,102819.09
2023-01-28T22:23:52.684Z,102831.34
2023-01-28T22:28:55.294Z,102819.09
2023-01-28T22:33:59.218Z,102820.84
2023-01-28T22:39:02.793Z,102812.97
2023-01-28T22:44:05.614Z,102813.81
2023-01-28T22:49:11.269Z,102814.72
2023-01-28T22:54:14.813Z,102824.25
2023-01-28T22:59:17.443Z,102812.91
2023-01-28T23:04:21.345Z,102801.66
2023-01-28T23:09:23.901Z,102799.88
2023-01-28T23:14:44.304Z,102797.22
2023-01-28T23:20:05.925Z,102794.50
2023-01-28T23:25:08.955Z,102733.34
2023-01-28T23:30:13.396Z,102791.88
2023-01-28T23:35:19.429Z,102785.97
2023-01-28T23:40:24.377Z,102776.38
2023-01-28T23:45:27.052Z,102778.13
2023-01-28T23:50:31.067Z,102767.69
2023-01-28T23:55:33.622Z,102764.94
